Météo Nord-Pas-de-Calais   La météo au plus près de chez vous

Station météorologique

Observations météo à Belmont (67027)

67027001 1065 m Dernier relevé à 12:30
21°C
Humidité 63 % Vent 19.4 km/h

Journée consultée

Vendredi 4 Septembre 2026

Synthèse de la journée

Périodes de référence en UTC

Température maximale

21.1°C

à 12:24

06h 06h

Température minimale

14.9°C

à 03:06

18h 18h

Rafale maximale

42 km/h

à 12:00

00h 00h

Précipitations

0 mm

Cumul quotidien

06h 06h

Graphiques de la journée

Heure locale Réduire

Données détaillées

Relevés météo

Pas de 6 minutes Afficher les relevés infra-horaires
Relevés météo détaillés à Belmont pour le Vendredi 4 Septembre 2026
Heure Température °C Point de rosée °C Humidité % Vent moyen (raf.), km/h Précipitations mm
12:30 21 °C 12.7 °C 59 % 24 km/h (41 km/h) 0 mm0 mm
12:24 21.1 °C 12.8 °C 59 % 22 km/h (36 km/h) 0 mm0 mm
12:18 21 °C 12.7 °C 59 % 22 km/h (36 km/h) 0 mm0 mm
12:12 20.9 °C 13.1 °C 61 % 22 km/h (35 km/h) 0 mm0 mm
12:06 20.9 °C 12.8 °C 60 % 22 km/h (38 km/h) 0 mm0 mm
12:00 20.7 °C 12.7 °C 60 % 24 km/h (42 km/h) 0 mm0 mm
11:54 20.7 °C 12.9 °C 61 % 21 km/h (32 km/h) 0 mm0 mm
11:48 20.5 °C 13 °C 62 % 24 km/h (41 km/h) 0 mm0 mm
11:42 20.3 °C 12.8 °C 62 % 22 km/h (37 km/h) 0 mm0 mm
11:36 20.3 °C 12.8 °C 62 % 21 km/h (36 km/h) 0 mm0 mm
11:30 20.4 °C 13.1 °C 63 % 19 km/h (29 km/h) 0 mm0 mm
11:24 20.3 °C 13.3 °C 64 % 19 km/h (30 km/h) 0 mm0 mm
11:18 19.9 °C 12.9 °C 64 % 21 km/h (36 km/h) 0 mm0 mm
11:12 19.9 °C 12.9 °C 64 % 22 km/h (36 km/h) 0 mm0 mm
11:06 19.9 °C 13.1 °C 65 % 22 km/h (33 km/h) 0 mm0 mm
11:00 19.5 °C 13 °C 66 % 22 km/h (35 km/h) 0 mm0 mm
10:54 19.5 °C 13 °C 66 % 23 km/h (37 km/h) 0 mm0 mm
10:48 19.2 °C 12.9 °C 67 % 23 km/h (37 km/h) 0 mm0 mm
10:42 19.3 °C 13 °C 67 % 22 km/h (36 km/h) 0 mm0 mm
10:36 19.2 °C 12.9 °C 67 % 23 km/h (37 km/h) 0 mm0 mm
10:30 19 °C 13.2 °C 69 % 20 km/h (37 km/h) 0 mm0 mm
10:24 19 °C 13.4 °C 70 % 19 km/h (35 km/h) 0 mm0 mm
10:18 18.7 °C 13.1 °C 70 % 21 km/h (35 km/h) 0 mm0 mm
10:12 18.7 °C 13.5 °C 72 % 19 km/h (29 km/h) 0 mm0 mm
10:06 18.5 °C 13.4 °C 72 % 19 km/h (32 km/h) 0 mm0 mm
10:00 18.3 °C 13.6 °C 74 % 20 km/h (32 km/h) 0 mm0 mm
09:54 17.9 °C 13.4 °C 75 % 21 km/h (31 km/h) 0 mm0 mm
09:48 17.9 °C 13.4 °C 75 % 19 km/h (30 km/h) 0 mm0 mm
09:42 17.9 °C 13.6 °C 76 % 21 km/h (31 km/h) 0 mm0 mm
09:36 17.5 °C 13.4 °C 77 % 21 km/h (31 km/h) 0 mm0 mm
09:30 17.3 °C 13.4 °C 78 % 20 km/h (31 km/h) 0 mm0 mm
09:24 17.2 °C 13.5 °C 79 % 22 km/h (33 km/h) 0 mm0 mm
09:18 17 °C 13.5 °C 80 % 20 km/h (33 km/h) 0 mm0 mm
09:12 16.9 °C 13.4 °C 80 % 19 km/h (27 km/h) 0 mm0 mm
09:06 16.8 °C 13.3 °C 80 % 20 km/h (32 km/h) 0 mm0 mm
09:00 16.6 °C 13.3 °C 81 % 21 km/h (32 km/h) 0 mm0 mm
08:54 16.6 °C 13.5 °C 82 % 19 km/h (28 km/h) 0 mm0 mm
08:48 16.5 °C 13.4 °C 82 % 18 km/h (32 km/h) 0 mm0 mm
08:42 16.3 °C 13.4 °C 83 % 18 km/h (26 km/h) 0 mm0 mm
08:36 16.2 °C 13.3 °C 83 % 18 km/h (29 km/h) 0 mm0 mm
08:30 16.1 °C 13.2 °C 83 % 21 km/h (31 km/h) 0 mm0 mm
08:24 16 °C 13.3 °C 84 % 19 km/h (31 km/h) 0 mm0 mm
08:18 16 °C 13.3 °C 84 % 18 km/h (28 km/h) 0 mm0 mm
08:12 15.9 °C 13.4 °C 85 % 20 km/h (30 km/h) 0 mm0 mm
08:06 15.9 °C 13.4 °C 85 % 21 km/h (31 km/h) 0 mm0 mm
08:00 15.7 °C 13.4 °C 86 % 21 km/h (31 km/h) 0 mm0 mm
07:54 15.6 °C 13.4 °C 87 % 22 km/h (31 km/h) 0 mm0 mm
07:48 15.4 °C 13.4 °C 88 % 21 km/h (29 km/h) 0 mm0 mm
07:42 15.3 °C 13.3 °C 88 % 21 km/h (29 km/h) 0 mm0 mm
07:36 15.2 °C 13.2 °C 88 % 21 km/h (28 km/h) 0 mm0 mm
07:30 15.3 °C 13.1 °C 87 % 21 km/h (30 km/h) 0 mm0 mm
07:24 15.2 °C 13.2 °C 88 % 20 km/h (30 km/h) 0 mm0 mm
07:18 15.1 °C 13.1 °C 88 % 21 km/h (29 km/h) 0 mm0 mm
07:12 15 °C 13.2 °C 89 % 20 km/h (29 km/h) 0 mm0 mm
07:06 15 °C 13.2 °C 89 % 19 km/h (29 km/h) 0 mm0 mm
07:00 15.1 °C 13.1 °C 88 % 19 km/h (29 km/h) 0 mm0 mm
06:54 14.9 °C 12.9 °C 88 % 19 km/h (28 km/h) 0 mm0 mm
06:48 15.2 °C 13.2 °C 88 % 19 km/h (28 km/h) 0 mm0 mm
06:42 15.1 °C 13.1 °C 88 % 17 km/h (26 km/h) 0 mm0 mm
06:36 15.2 °C 13 °C 87 % 17 km/h (27 km/h) 0 mm0 mm
06:30 15.3 °C 13.1 °C 87 % 17 km/h (27 km/h) 0 mm0 mm
06:24 15.4 °C 13.1 °C 86 % 18 km/h (27 km/h) 0 mm0 mm
06:18 15.4 °C 13.1 °C 86 % 18 km/h (25 km/h) 0 mm0 mm
06:12 15.6 °C 13.1 °C 85 % 18 km/h (27 km/h) 0 mm0 mm
06:06 15.6 °C 13.1 °C 85 % 19 km/h (27 km/h) 0 mm0 mm
06:00 15.7 °C 13.2 °C 85 % 19 km/h (28 km/h) 0 mm0 mm
05:54 15.6 °C 13.3 °C 86 % 17 km/h (27 km/h) 0 mm0 mm
05:48 15.5 °C 13 °C 85 % 18 km/h (27 km/h) 0 mm0 mm
05:42 15.5 °C 13 °C 85 % 17 km/h (27 km/h) 0 mm0 mm
05:36 15.6 °C 13.1 °C 85 % 18 km/h (30 km/h) 0 mm0 mm
05:30 15.6 °C 13.1 °C 85 % 19 km/h (30 km/h) 0 mm0 mm
05:24 15.7 °C 13.2 °C 85 % 16 km/h (26 km/h) 0 mm0 mm
05:18 15.7 °C 13.2 °C 85 % 14 km/h (22 km/h) 0 mm0 mm
05:12 15.7 °C 13 °C 84 % 14 km/h (25 km/h) 0 mm0 mm
05:06 16 °C 13.3 °C 84 % 15 km/h (25 km/h) 0 mm0 mm
05:00 15.9 °C 13.2 °C 84 % 13 km/h (23 km/h) 0 mm0 mm
04:54 15.8 °C 13.3 °C 85 % 10 km/h (18 km/h) 0 mm0 mm
04:48 15.7 °C 13.2 °C 85 % 11 km/h (20 km/h) 0 mm0 mm
04:42 15.6 °C 13.1 °C 85 % 12 km/h (20 km/h) 0 mm0 mm
04:36 15.5 °C 13 °C 85 % 11 km/h (19 km/h) 0 mm0 mm
04:30 15.4 °C 12.9 °C 85 % 11 km/h (19 km/h) 0 mm0 mm
04:24 15.5 °C 12.8 °C 84 % 11 km/h (18 km/h) 0 mm0 mm
04:18 15.4 °C 12.7 °C 84 % 12 km/h (22 km/h) 0 mm0 mm
04:12 15.4 °C 12.9 °C 85 % 13 km/h (22 km/h) 0 mm0 mm
04:06 15.5 °C 12.8 °C 84 % 13 km/h (20 km/h) 0 mm0 mm
04:00 15.4 °C 12.9 °C 85 % 13 km/h (21 km/h) 0 mm0 mm
03:54 15.3 °C 12.8 °C 85 % 13 km/h (21 km/h) 0 mm0 mm
03:48 15.2 °C 12.7 °C 85 % 13 km/h (21 km/h) 0 mm0 mm
03:42 15.1 °C 12.4 °C 84 % 13 km/h (21 km/h) 0 mm0 mm
03:36 15.2 °C 12.7 °C 85 % 13 km/h (19 km/h) 0 mm0 mm
03:30 15.3 °C 12.4 °C 83 % 14 km/h (19 km/h) 0 mm0 mm
03:24 15.2 °C 12.3 °C 83 % 14 km/h (21 km/h) 0 mm0 mm
03:18 15.1 °C 12.2 °C 83 % 15 km/h (22 km/h) 0 mm0 mm
03:12 14.9 °C 12.2 °C 84 % 14 km/h (20 km/h) 0 mm0 mm
03:06 14.9 °C 12.2 °C 84 % 14 km/h (20 km/h) 0 mm0 mm
03:00 15.1 °C 12.2 °C 83 % 14 km/h (22 km/h) 0 mm0 mm
02:54 15 °C 12.3 °C 84 % 14 km/h (20 km/h) 0 mm0 mm
02:48 15.3 °C 12.6 °C 84 % 13 km/h (20 km/h) 0 mm0 mm
02:42 15.3 °C 12.4 °C 83 % 12 km/h (19 km/h) 0 mm0 mm
02:36 15.3 °C 12.4 °C 83 % 11 km/h (17 km/h) 0 mm0 mm
02:30 15.4 °C 12.5 °C 83 % 11 km/h (17 km/h) 0 mm0 mm
02:24 15.4 °C 12.5 °C 83 % 12 km/h (18 km/h) 0 mm0 mm
02:18 15.3 °C 12.2 °C 82 % 13 km/h (22 km/h) 0 mm0 mm
02:12 15.4 °C 12.5 °C 83 % 13 km/h (22 km/h) 0 mm0 mm
02:06 15.4 °C 12.3 °C 82 % 13 km/h (19 km/h) 0 mm0 mm
02:00 15.4 °C 12.3 °C 82 % 13 km/h (19 km/h) 0 mm0 mm
01:54 15.5 °C 12.4 °C 82 % 12 km/h (19 km/h) 0 mm0 mm
01:48 15.5 °C 12.4 °C 82 % 12 km/h (18 km/h) 0 mm0 mm
01:42 15.6 °C 12.5 °C 82 % 12 km/h (18 km/h) 0 mm0 mm
01:36 15.4 °C 12.2 °C 81 % 11 km/h (17 km/h) 0 mm0 mm
01:30 15.5 °C 12.3 °C 81 % 10 km/h (17 km/h) 0 mm0 mm
01:24 15.6 °C 12.3 °C 81 % 11 km/h (19 km/h) 0 mm0 mm
01:18 15.7 °C 12.4 °C 81 % 13 km/h (19 km/h) 0 mm0 mm
01:12 15.7 °C 12.4 °C 81 % 13 km/h (18 km/h) 0 mm0 mm
01:06 15.8 °C 12.4 °C 80 % 12 km/h (18 km/h) 0 mm0 mm
01:00 15.9 °C 12.5 °C 80 % 13 km/h (19 km/h) 0 mm0 mm
00:54 16 °C 12.5 °C 80 % 13 km/h (19 km/h) 0 mm0 mm
00:48 15.9 °C 12.5 °C 80 % 14 km/h (22 km/h) 0 mm0 mm
00:42 15.9 °C 12.3 °C 79 % 16 km/h (23 km/h) 0 mm0 mm
00:36 16 °C 12.4 °C 79 % 15 km/h (23 km/h) 0 mm0 mm
00:30 15.8 °C 12.2 °C 79 % 15 km/h (23 km/h) 0 mm0 mm
00:24 16 °C 12.2 °C 78 % 15 km/h (25 km/h) 0 mm0 mm
00:18 16.1 °C 12.1 °C 77 % 15 km/h (21 km/h) 0 mm0 mm
00:12 16.1 °C 11.9 °C 76 % 14 km/h (21 km/h) 0 mm0 mm
00:06 16.1 °C 11.9 °C 76 % 14 km/h (22 km/h) 0 mm0 mm
00:00 16.1 °C 11.7 °C 75 % 13 km/h (22 km/h) 0 mm0 mm

Données via Météo-France

Relevés météo à Belmont

Cette page rassemble les observations de la station de Belmont : température, humidité, vent, précipitations et pression atmosphérique. Les graphiques facilitent le suivi de la journée, tandis que le tableau donne accès aux mesures horaires et infra-horaires disponibles.

Pour replacer ces mesures dans leur contexte, consultez la climatologie de Belmont ainsi que ses normales et records. Retrouvez aussi la carte des observations météo en temps réel.